Time;durP1;ratioP1;P1;durP2;ratioP2;P2;SDS_P1;SDS_P2;PMS_P1;PMS_P2;Temp;Humidity;BMP_temperature;BMP_pressure;BME280_temperature;BME280_humidity;BME280_pressure;Samples;Min_cycle;Max_cycle;Signal;HPM_P1;HPM_P2
2022/08/27 00:01:24;;;;;;;8.15;1.70;;;17.90;99.90;;;;;;5056040;28;20051;-74
2022/08/27 00:03:52;;;;;;;7.32;2.10;;;17.90;99.90;;;;;;5027184;28;20047;-74
2022/08/27 00:06:19;;;;;;;8.13;1.90;;;17.90;99.90;;;;;;5053090;28;20040;-74
2022/08/27 00:08:46;;;;;;;5.72;1.70;;;17.90;99.90;;;;;;5036221;28;20456;-74
2022/08/27 00:11:13;;;;;;;8.77;2.00;;;17.80;99.90;;;;;;5043091;28;20492;-74
2022/08/27 00:13:39;;;;;;;7.78;2.08;;;17.80;99.90;;;;;;5040180;28;20467;-74
2022/08/27 00:16:07;;;;;;;7.72;2.05;;;17.80;99.90;;;;;;5039549;28;20037;-74
2022/08/27 00:18:34;;;;;;;6.47;1.90;;;17.80;99.90;;;;;;5067062;28;20045;-74
2022/08/27 00:21:01;;;;;;;7.95;2.03;;;17.70;99.90;;;;;;5047459;28;20477;-74
2022/08/27 00:23:27;;;;;;;6.45;1.95;;;17.70;99.90;;;;;;5053229;28;20036;-75
2022/08/27 00:25:53;;;;;;;7.57;1.92;;;17.70;99.90;;;;;;5056430;28;20045;-75
2022/08/27 00:28:19;;;;;;;6.10;1.98;;;17.70;99.90;;;;;;5038011;28;20056;-74
2022/08/27 00:30:45;;;;;;;6.65;2.10;;;17.70;99.90;;;;;;5074395;28;20055;-75
2022/08/27 00:33:11;;;;;;;6.05;1.90;;;17.70;99.90;;;;;;5074134;28;20157;-74
2022/08/27 00:35:37;;;;;;;8.32;1.90;;;17.70;99.90;;;;;;5050136;28;20052;-74
2022/08/27 00:38:04;;;;;;;7.57;2.08;;;17.70;99.90;;;;;;5047884;28;20040;-74
2022/08/27 00:40:32;;;;;;;7.80;2.03;;;17.60;99.90;;;;;;5055997;28;20048;-74
2022/08/27 00:43:01;;;;;;;7.25;1.90;;;17.60;99.90;;;;;;5055941;28;20048;-74
2022/08/27 00:45:27;;;;;;;6.88;1.90;;;17.60;99.90;;;;;;5053715;28;20118;-74
2022/08/27 00:47:56;;;;;;;7.30;1.92;;;17.60;99.90;;;;;;5036349;28;20468;-74
2022/08/27 00:50:52;;;;;;;5.82;1.88;;;17.60;99.90;;;;;;5050244;28;20033;-74
2022/08/27 00:53:25;;;;;;;7.82;1.90;;;17.50;99.90;;;;;;5055343;28;20067;-74
2022/08/27 00:56:10;;;;;;;8.27;2.03;;;17.50;99.90;;;;;;5042759;28;20375;-74
2022/08/27 00:58:39;;;;;;;7.88;2.08;;;17.50;99.90;;;;;;5036178;28;20076;-74
2022/08/27 01:01:08;;;;;;;8.55;2.28;;;17.50;99.90;;;;;;5054592;28;20037;-74
2022/08/27 01:03:34;;;;;;;5.82;1.63;;;17.40;99.90;;;;;;5052653;28;20091;-74
2022/08/27 01:06:02;;;;;;;7.20;1.83;;;17.40;99.90;;;;;;5072072;28;20101;-74
2022/08/27 01:08:32;;;;;;;8.82;2.30;;;17.40;99.90;;;;;;5050664;28;20037;-74
2022/08/27 01:10:59;;;;;;;6.65;1.85;;;17.30;99.90;;;;;;5046705;28;20049;-74
2022/08/27 01:13:30;;;;;;;7.78;2.00;;;17.30;99.90;;;;;;5051764;28;20361;-74
2022/08/27 01:15:58;;;;;;;6.15;2.20;;;17.30;99.90;;;;;;5035916;28;20086;-74
2022/08/27 01:18:29;;;;;;;6.05;1.98;;;17.40;99.90;;;;;;5044879;28;20056;-75
2022/08/27 01:21:20;;;;;;;7.97;1.90;;;17.40;99.90;;;;;;5035466;28;20047;-74
2022/08/27 01:23:58;;;;;;;7.90;2.10;;;17.40;99.90;;;;;;5035793;28;20080;-74
2022/08/27 01:26:25;;;;;;;6.60;2.13;;;17.30;99.90;;;;;;5037269;28;20053;-74
2022/08/27 01:28:51;;;;;;;8.63;2.20;;;17.30;99.90;;;;;;5038885;28;20041;-73
2022/08/27 01:31:18;;;;;;;5.25;2.00;;;17.30;99.90;;;;;;5055259;28;20425;-74
2022/08/27 01:34:01;;;;;;;7.68;2.40;;;17.30;99.90;;;;;;5048529;28;20059;-74
2022/08/27 01:36:27;;;;;;;7.25;2.20;;;17.30;99.90;;;;;;5049085;28;20049;-74
2022/08/27 01:38:53;;;;;;;9.27;2.30;;;17.20;99.90;;;;;;5054895;28;20071;-74
2022/08/27 01:41:19;;;;;;;5.95;2.10;;;17.10;99.90;;;;;;5055366;28;20052;-74
2022/08/27 01:43:45;;;;;;;8.18;2.20;;;17.10;99.90;;;;;;5052474;28;20056;-73
2022/08/27 01:46:11;;;;;;;6.50;1.90;;;17.10;99.90;;;;;;5038946;28;20106;-75
2022/08/27 01:48:37;;;;;;;8.88;2.10;;;17.00;99.90;;;;;;5052826;28;20053;-74
2022/08/27 01:51:03;;;;;;;7.25;2.10;;;17.00;99.90;;;;;;5059997;28;20049;-74
2022/08/27 01:53:29;;;;;;;5.93;2.20;;;17.00;99.90;;;;;;5048210;28;20033;-74
2022/08/27 01:55:56;;;;;;;7.28;2.08;;;17.00;99.90;;;;;;5037735;28;20045;-75
2022/08/27 01:58:26;;;;;;;7.55;2.22;;;17.00;99.90;;;;;;5046820;28;20044;-74
2022/08/27 02:00:56;;;;;;;7.60;2.20;;;17.00;99.90;;;;;;5036078;28;20033;-74
2022/08/27 02:03:23;;;;;;;8.20;2.20;;;16.90;99.90;;;;;;5047408;28;20106;-73
2022/08/27 02:05:49;;;;;;;7.68;2.30;;;16.90;99.90;;;;;;5048246;28;20045;-74
2022/08/27 02:08:16;;;;;;;5.95;1.95;;;16.90;99.90;;;;;;5054404;28;20128;-74
2022/08/27 02:10:43;;;;;;;8.02;2.10;;;16.90;99.90;;;;;;5054908;28;20032;-74
2022/08/27 02:13:10;;;;;;;6.72;2.20;;;16.90;99.90;;;;;;5020375;28;20472;-74
2022/08/27 02:15:36;;;;;;;7.75;2.25;;;16.90;99.90;;;;;;5045310;28;20051;-74
2022/08/27 02:18:03;;;;;;;5.65;2.08;;;16.90;99.90;;;;;;5038507;28;20037;-74
2022/08/27 02:20:30;;;;;;;6.28;1.95;;;16.90;99.90;;;;;;5042291;28;20045;-75
2022/08/27 02:22:57;;;;;;;5.45;1.80;;;16.90;99.90;;;;;;5048568;28;20122;-75
2022/08/27 02:25:23;;;;;;;8.13;2.15;;;16.90;99.90;;;;;;5060347;28;20467;-74
2022/08/27 02:27:49;;;;;;;7.55;1.90;;;16.80;99.90;;;;;;5062921;28;20040;-74
2022/08/27 02:30:20;;;;;;;7.07;1.70;;;16.90;99.90;;;;;;5054914;28;20090;-75
2022/08/27 02:32:46;;;;;;;7.75;2.03;;;16.80;99.90;;;;;;5038110;28;20033;-73
2022/08/27 02:35:16;;;;;;;7.38;2.00;;;16.80;99.90;;;;;;5054208;28;20048;-75
2022/08/27 02:37:43;;;;;;;6.15;1.88;;;16.80;99.90;;;;;;5051317;28;20127;-73
2022/08/27 02:40:10;;;;;;;8.30;2.00;;;16.80;99.90;;;;;;5056375;28;20043;-75
2022/08/27 02:42:36;;;;;;;5.80;1.90;;;16.70;99.90;;;;;;5058694;28;20486;-74
2022/08/27 02:45:05;;;;;;;6.60;1.75;;;16.70;99.90;;;;;;5055526;28;20053;-73
2022/08/27 02:47:30;;;;;;;6.20;1.88;;;16.70;99.90;;;;;;5038434;28;20066;-74
2022/08/27 02:49:56;;;;;;;6.60;1.77;;;16.70;99.90;;;;;;5033999;28;20495;-74
2022/08/27 02:52:22;;;;;;;6.55;1.80;;;16.60;99.90;;;;;;5057059;28;20037;-74
2022/08/27 02:54:48;;;;;;;7.85;2.00;;;16.60;99.90;;;;;;5038514;28;20049;-74
2022/08/27 02:57:13;;;;;;;6.50;1.80;;;16.60;99.90;;;;;;5036670;28;20432;-75
2022/08/27 02:59:39;;;;;;;9.32;1.80;;;16.50;99.90;;;;;;5038306;28;20075;-75
2022/08/27 03:02:05;;;;;;;6.95;1.88;;;16.50;99.90;;;;;;5031728;28;20045;-75
2022/08/27 03:04:30;;;;;;;8.18;1.95;;;16.50;99.90;;;;;;5074934;28;20130;-74
2022/08/27 03:06:56;;;;;;;8.65;1.90;;;16.50;99.90;;;;;;5040742;28;20036;-74
2022/08/27 03:09:22;;;;;;;5.72;1.80;;;16.50;99.90;;;;;;5041295;28;20034;-75
2022/08/27 03:11:48;;;;;;;7.95;1.90;;;16.50;99.90;;;;;;5047741;28;20049;-74
2022/08/27 03:14:13;;;;;;;7.35;1.80;;;16.40;99.90;;;;;;5052562;28;20376;-74
2022/08/27 03:16:39;;;;;;;6.72;1.90;;;16.40;99.90;;;;;;5040870;28;20045;-74
2022/08/27 03:19:06;;;;;;;8.45;2.00;;;16.40;99.90;;;;;;5034812;28;20056;-74
2022/08/27 03:21:33;;;;;;;6.75;1.95;;;16.40;99.90;;;;;;5034614;28;20037;-75
2022/08/27 03:24:00;;;;;;;7.43;2.20;;;16.40;99.90;;;;;;5027859;28;20094;-75
2022/08/27 03:26:27;;;;;;;6.72;1.90;;;16.30;99.90;;;;;;5021068;28;20362;-74
2022/08/27 03:28:53;;;;;;;7.05;2.00;;;16.30;99.90;;;;;;5037865;28;20048;-74
2022/08/27 03:31:25;;;;;;;6.90;2.00;;;16.30;99.90;;;;;;5023111;28;20049;-74
2022/08/27 03:33:57;;;;;;;7.97;1.80;;;16.30;99.90;;;;;;5037305;28;20041;-74
2022/08/27 03:36:25;;;;;;;6.70;2.13;;;16.20;99.90;;;;;;5036919;28;20119;-74
2022/08/27 03:38:51;;;;;;;7.28;2.03;;;16.20;99.90;;;;;;5037274;28;20380;-74
2022/08/27 03:41:17;;;;;;;8.00;2.08;;;16.20;99.90;;;;;;5020646;28;20084;-74
2022/08/27 03:43:43;;;;;;;5.95;2.00;;;16.20;99.90;;;;;;5037115;28;20033;-74
2022/08/27 03:46:10;;;;;;;8.10;1.90;;;16.20;99.90;;;;;;5026510;28;20357;-73
2022/08/27 03:48:36;;;;;;;6.82;1.80;;;16.20;99.90;;;;;;5044876;28;20094;-75
2022/08/27 03:51:10;;;;;;;6.53;1.88;;;16.10;99.90;;;;;;5009031;28;20124;-75
2022/08/27 03:53:38;;;;;;;5.32;1.80;;;16.20;99.90;;;;;;5034216;28;20056;-74
2022/08/27 03:56:05;;;;;;;7.70;2.22;;;16.20;99.90;;;;;;5017270;28;20044;-74
2022/08/27 03:58:32;;;;;;;6.70;1.73;;;16.20;99.90;;;;;;5013087;28;20132;-74
2022/08/27 04:00:58;;;;;;;6.70;1.90;;;16.20;99.90;;;;;;5019382;28;20053;-74
2022/08/27 04:03:23;;;;;;;6.80;1.90;;;16.10;99.90;;;;;;5026873;28;20107;-74
2022/08/27 04:05:54;;;;;;;7.07;2.05;;;16.10;99.90;;;;;;5036322;28;20492;-74
2022/08/27 04:08:21;;;;;;;9.45;2.00;;;16.10;99.90;;;;;;5036684;28;20099;-74
2022/08/27 04:10:48;;;;;;;6.75;1.90;;;16.10;99.90;;;;;;5051176;28;20056;-75
2022/08/27 04:13:14;;;;;;;6.10;1.90;;;16.10;99.90;;;;;;5056803;28;20049;-73
2022/08/27 04:15:45;;;;;;;6.07;1.90;;;16.10;99.90;;;;;;5056852;28;20524;-74
2022/08/27 04:18:15;;;;;;;8.52;1.83;;;16.00;99.90;;;;;;5037302;28;20052;-74
2022/08/27 04:20:48;;;;;;;6.07;2.17;;;16.00;99.90;;;;;;5048314;28;20040;-73
2022/08/27 04:23:14;;;;;;;6.25;2.10;;;16.00;99.90;;;;;;5033447;28;20045;-74
2022/08/27 04:25:41;;;;;;;4.82;1.60;;;16.00;99.90;;;;;;5037406;28;20058;-74
2022/08/27 04:28:08;;;;;;;7.45;2.00;;;16.00;99.90;;;;;;5052147;28;20040;-74
2022/08/27 04:30:43;;;;;;;6.00;1.90;;;16.00;99.90;;;;;;5036159;28;20037;-74
2022/08/27 04:33:10;;;;;;;8.68;2.10;;;16.00;99.90;;;;;;5033936;28;20094;-74
2022/08/27 04:35:36;;;;;;;6.22;2.00;;;15.90;99.90;;;;;;5032098;28;20043;-74
2022/08/27 04:38:02;;;;;;;6.43;2.10;;;16.00;99.90;;;;;;5049102;28;20044;-75
2022/08/27 04:41:18;;;;;;;7.68;2.20;;;16.00;99.90;;;;;;5023271;28;20037;-74
2022/08/27 04:43:15;;;;;;;5.80;1.80;;;16.00;99.90;;;;;;5055550;28;20044;-74
2022/08/27 04:45:45;;;;;;;6.57;2.00;;;15.90;99.90;;;;;;5055423;28;20114;-74
2022/08/27 04:48:12;;;;;;;7.50;2.25;;;15.90;99.90;;;;;;5055939;28;20468;-74
2022/08/27 04:50:43;;;;;;;7.18;2.20;;;16.00;99.90;;;;;;5041577;28;20091;-74
2022/08/27 04:53:10;;;;;;;6.60;2.00;;;15.90;99.90;;;;;;5052240;28;20048;-74
2022/08/27 04:55:49;;;;;;;5.88;2.13;;;15.90;99.90;;;;;;5037964;28;20600;-74
2022/08/27 04:58:16;;;;;;;6.13;2.00;;;15.90;99.90;;;;;;5036221;28;20127;-74
2022/08/27 05:00:49;;;;;;;7.20;2.00;;;15.90;99.90;;;;;;5033398;28;20048;-74
2022/08/27 05:03:17;;;;;;;6.07;1.98;;;16.00;99.90;;;;;;5061181;28;20163;-74
2022/08/27 05:05:43;;;;;;;6.13;2.03;;;15.90;99.90;;;;;;5023981;28;20049;-74
2022/08/27 05:08:13;;;;;;;6.13;1.70;;;15.90;99.90;;;;;;5022599;28;20052;-74
2022/08/27 05:10:41;;;;;;;6.55;1.95;;;15.90;99.90;;;;;;5019549;28;20068;-74
2022/08/27 05:13:07;;;;;;;6.57;2.08;;;15.90;99.90;;;;;;5035294;28;20353;-75
2022/08/27 05:15:34;;;;;;;7.65;2.13;;;15.90;99.90;;;;;;5010158;28;20384;-74
2022/08/27 05:18:00;;;;;;;6.65;2.05;;;15.80;99.90;;;;;;5033382;28;20048;-74
2022/08/27 05:20:27;;;;;;;4.97;1.60;;;15.80;99.90;;;;;;5024301;28;20048;-74
2022/08/27 05:22:53;;;;;;;7.28;2.13;;;15.70;99.90;;;;;;5066908;28;20041;-76
2022/08/27 05:25:19;;;;;;;5.78;1.70;;;15.70;99.90;;;;;;5038221;28;20054;-74
2022/08/27 05:27:44;;;;;;;6.43;2.08;;;15.70;99.90;;;;;;5038592;28;20044;-74
2022/08/27 05:30:11;;;;;;;7.97;2.25;;;15.70;99.90;;;;;;5055332;28;20040;-74
2022/08/27 05:32:36;;;;;;;6.90;2.00;;;15.70;99.90;;;;;;5055349;28;20045;-74
2022/08/27 05:35:02;;;;;;;7.75;2.00;;;15.70;99.90;;;;;;5033879;28;20095;-74
2022/08/27 05:37:29;;;;;;;6.63;1.85;;;15.70;99.90;;;;;;5051185;28;20041;-74
2022/08/27 05:39:55;;;;;;;7.10;2.10;;;15.70;99.90;;;;;;5021597;28;20422;-74
2022/08/27 05:42:20;;;;;;;5.68;1.90;;;15.80;99.90;;;;;;5054772;28;20029;-74
2022/08/27 05:44:46;;;;;;;6.90;1.90;;;15.70;99.90;;;;;;5037431;28;20049;-74
2022/08/27 05:47:11;;;;;;;7.00;1.80;;;15.80;99.90;;;;;;5019933;28;20123;-74
2022/08/27 05:49:37;;;;;;;6.53;1.90;;;15.80;99.90;;;;;;5018661;28;20037;-74
2022/08/27 05:52:08;;;;;;;6.65;1.88;;;15.80;99.90;;;;;;5053252;28;20372;-74
2022/08/27 05:54:34;;;;;;;8.55;2.10;;;15.90;99.90;;;;;;5052494;28;20387;-74
2022/08/27 05:56:59;;;;;;;7.68;1.92;;;15.90;99.90;;;;;;5059774;28;20131;-75
2022/08/27 06:02:09;;;;;;;5.40;1.80;;;16.10;99.90;;;;;;5062695;28;20074;-74
2022/08/27 06:04:35;;;;;;;4.95;1.65;;;16.20;99.90;;;;;;5051016;28;20464;-74
2022/08/27 06:07:01;;;;;;;7.22;2.00;;;16.40;99.90;;;;;;5071888;28;20116;-74
2022/08/27 06:09:28;;;;;;;8.27;1.98;;;16.50;99.90;;;;;;5047260;28;20045;-74
2022/08/27 06:11:56;;;;;;;6.88;1.88;;;16.50;99.90;;;;;;5054552;28;20536;-73
2022/08/27 06:14:22;;;;;;;5.45;1.85;;;16.60;99.90;;;;;;5055102;28;20087;-74
2022/08/27 06:16:48;;;;;;;6.82;2.10;;;16.70;99.90;;;;;;5063068;28;20098;-73
2022/08/27 06:19:14;;;;;;;6.57;2.03;;;16.80;99.90;;;;;;5055812;28;20483;-73
2022/08/27 06:21:41;;;;;;;6.50;1.90;;;17.00;99.90;;;;;;5039791;28;20396;-73
2022/08/27 06:24:08;;;;;;;5.80;2.00;;;17.00;99.90;;;;;;5037984;28;20056;-76
2022/08/27 06:26:35;;;;;;;6.25;1.92;;;17.10;99.90;;;;;;5058003;28;20045;-73
2022/08/27 06:29:05;;;;;;;7.38;1.80;;;17.30;99.90;;;;;;5045608;28;20047;-74
2022/08/27 06:31:31;;;;;;;8.15;2.03;;;17.30;99.90;;;;;;5031002;28;20041;-74
2022/08/27 06:33:59;;;;;;;6.07;1.90;;;17.60;99.90;;;;;;5061429;28;20036;-73
2022/08/27 06:36:26;;;;;;;7.35;1.88;;;17.70;99.90;;;;;;5067173;28;20119;-74
2022/08/27 06:38:52;;;;;;;5.40;1.70;;;17.80;99.90;;;;;;5029947;28;20037;-74
2022/08/27 06:41:21;;;;;;;7.85;1.92;;;17.80;99.90;;;;;;5029313;28;20036;-73
2022/08/27 06:43:47;;;;;;;6.97;2.10;;;17.90;99.90;;;;;;5041909;28;20041;-74
2022/08/27 06:46:16;;;;;;;8.13;1.70;;;18.00;99.90;;;;;;5044217;28;20036;-73
2022/08/27 06:48:45;;;;;;;7.13;2.00;;;18.10;99.90;;;;;;5049612;28;20055;-74
2022/08/27 06:51:17;;;;;;;6.55;1.77;;;18.10;99.90;;;;;;5048440;28;20045;-73
2022/08/27 06:53:45;;;;;;;8.77;2.13;;;18.30;99.90;;;;;;5054440;28;20388;-74
2022/08/27 06:56:12;;;;;;;7.70;1.80;;;18.50;99.90;;;;;;5050678;28;20116;-74
2022/08/27 06:58:39;;;;;;;5.95;1.98;;;18.70;99.90;;;;;;5039556;28;20382;-74
2022/08/27 07:01:32;;;;;;;7.75;2.00;;;19.00;99.90;;;;;;5056307;28;20045;-74
2022/08/27 07:04:01;;;;;;;7.95;1.80;;;19.00;99.90;;;;;;5057974;28;20052;-73
2022/08/27 07:06:29;;;;;;;8.05;1.90;;;19.10;99.90;;;;;;5053684;28;20044;-74
2022/08/27 07:08:55;;;;;;;9.80;1.80;;;19.40;99.90;;;;;;5060174;28;20051;-75
2022/08/27 07:11:21;;;;;;;6.68;1.75;;;19.80;99.90;;;;;;5066188;28;20078;-75
2022/08/27 07:13:48;;;;;;;6.70;2.00;;;20.10;99.90;;;;;;5072321;28;20094;-73
2022/08/27 07:16:17;;;;;;;9.30;2.00;;;20.80;99.90;;;;;;5072009;28;20491;-73
2022/08/27 07:18:43;;;;;;;7.95;1.80;;;21.00;99.90;;;;;;5069859;28;20080;-74
2022/08/27 07:21:09;;;;;;;7.15;2.00;;;21.30;99.90;;;;;;5069867;28;20482;-75
2022/08/27 07:23:38;;;;;;;5.65;1.77;;;22.00;99.90;;;;;;5071571;28;20032;-73
2022/08/27 07:26:08;;;;;;;7.95;2.00;;;22.30;99.90;;;;;;5069745;28;20114;-74
2022/08/27 07:28:34;;;;;;;8.23;1.90;;;22.70;98.50;;;;;;5051333;28;20043;-73
2022/08/27 07:31:00;;;;;;;8.07;1.95;;;22.70;97.20;;;;;;5067347;28;20044;-75
2022/08/27 07:33:26;;;;;;;5.80;1.90;;;22.90;97.60;;;;;;5052180;28;20082;-75
2022/08/27 07:35:52;;;;;;;7.72;1.80;;;23.20;96.00;;;;;;5050965;28;20040;-73
2022/08/27 07:38:18;;;;;;;5.90;1.85;;;23.40;95.50;;;;;;5041733;28;20074;-72
2022/08/27 07:40:44;;;;;;;6.63;2.00;;;23.80;95.10;;;;;;5070459;28;20528;-74
2022/08/27 07:45:57;;;;;;;7.65;1.70;;;23.80;91.60;;;;;;5071611;28;20047;-72
2022/08/27 07:48:23;;;;;;;7.28;1.80;;;23.90;91.60;;;;;;5082598;28;20036;-72
2022/08/27 07:50:49;;;;;;;7.20;1.90;;;24.10;91.50;;;;;;5050593;28;20495;-73
2022/08/27 07:53:15;;;;;;;6.65;1.90;;;24.60;90.70;;;;;;5070393;28;20372;-73
2022/08/27 07:55:41;;;;;;;7.13;1.73;;;25.00;89.10;;;;;;5065293;28;20052;-73
2022/08/27 07:58:07;;;;;;;7.22;2.00;;;24.70;86.70;;;;;;5071918;28;20039;-73
2022/08/27 08:00:33;;;;;;;7.65;1.98;;;24.40;86.30;;;;;;5066017;28;20483;-74
2022/08/27 08:03:00;;;;;;;8.52;1.77;;;24.30;86.60;;;;;;5061385;28;20064;-72
2022/08/27 08:05:25;;;;;;;8.27;2.00;;;23.80;87.10;;;;;;5064255;28;20526;-73
2022/08/27 08:07:51;;;;;;;7.90;1.63;;;23.50;87.10;;;;;;5039934;28;20119;-74
2022/08/27 08:10:19;;;;;;;6.88;1.80;;;23.20;88.30;;;;;;5059942;28;20147;-74
2022/08/27 08:12:45;;;;;;;6.63;1.80;;;22.70;88.70;;;;;;5057113;28;20056;-74
2022/08/27 08:15:11;;;;;;;8.93;1.90;;;22.40;90.30;;;;;;5070197;28;20105;-74
2022/08/27 08:17:38;;;;;;;9.40;1.98;;;22.00;91.00;;;;;;5051176;28;20053;-78
2022/08/27 08:20:05;;;;;;;8.25;2.00;;;21.80;92.20;;;;;;5056900;28;20047;-75
2022/08/27 08:22:31;;;;;;;7.78;1.80;;;21.50;93.00;;;;;;5045729;28;20116;-73
2022/08/27 08:24:56;;;;;;;7.10;1.77;;;21.30;93.90;;;;;;5071661;28;20174;-73
2022/08/27 08:27:22;;;;;;;7.00;1.85;;;21.20;94.40;;;;;;5063568;28;20052;-74
2022/08/27 08:29:49;;;;;;;7.78;1.98;;;21.10;95.10;;;;;;5054484;28;20059;-74
2022/08/27 08:32:16;;;;;;;8.55;1.88;;;21.10;95.70;;;;;;5066294;28;20486;-74
2022/08/27 08:34:42;;;;;;;8.13;2.00;;;21.10;95.90;;;;;;5066638;28;20482;-74
2022/08/27 08:37:07;;;;;;;7.13;2.00;;;21.00;95.80;;;;;;5066638;28;20040;-74
2022/08/27 08:39:35;;;;;;;8.02;1.83;;;20.90;95.90;;;;;;5050925;28;20372;-77
2022/08/27 08:42:04;;;;;;;7.07;1.90;;;20.90;96.00;;;;;;5068603;28;20039;-73
2022/08/27 08:44:32;;;;;;;6.88;1.90;;;20.90;96.50;;;;;;5051041;28;20060;-75
2022/08/27 08:47:13;;;;;;;10.02;2.20;;;20.80;96.70;;;;;;5071307;28;20047;-73
2022/08/27 08:49:44;;;;;;;9.45;2.03;;;20.70;97.30;;;;;;5060476;28;20047;-73
2022/08/27 08:52:28;;;;;;;9.50;2.08;;;20.50;97.60;;;;;;5069068;28;20373;-75
2022/08/27 08:55:03;;;;;;;8.93;2.10;;;20.40;98.00;;;;;;5050096;28;20032;-73
2022/08/27 08:57:39;;;;;;;12.30;2.17;;;20.30;98.50;;;;;;5079735;28;20075;-73
2022/08/27 09:00:13;;;;;;;7.15;1.92;;;20.30;98.80;;;;;;5066868;28;20112;-74
2022/08/27 09:02:43;;;;;;;7.72;1.83;;;20.30;98.90;;;;;;5065703;28;20047;-73
2022/08/27 09:05:10;;;;;;;8.45;1.90;;;20.40;99.20;;;;;;5072913;28;20115;-74
2022/08/27 09:07:47;;;;;;;7.10;1.77;;;20.40;99.30;;;;;;5067494;28;20040;-74
2022/08/27 09:10:32;;;;;;;8.05;1.95;;;20.40;99.00;;;;;;5068644;28;20043;-74
2022/08/27 09:13:02;;;;;;;10.55;2.13;;;20.50;99.20;;;;;;5065436;28;20071;-72
2022/08/27 09:15:34;;;;;;;8.70;1.80;;;20.60;99.00;;;;;;5072997;28;20051;-74
2022/08/27 09:18:10;;;;;;;9.65;2.03;;;20.90;98.80;;;;;;5059221;28;20049;-72
2022/08/27 09:20:38;;;;;;;9.10;2.00;;;21.30;98.50;;;;;;5064986;28;20081;-74
2022/08/27 09:23:18;;;;;;;9.40;1.90;;;21.50;97.60;;;;;;5058769;28;20529;-73
2022/08/27 09:25:44;;;;;;;10.05;2.00;;;21.30;96.30;;;;;;5071154;28;20044;-73
2022/08/27 09:31:07;;;;;;;7.57;1.80;;;21.20;94.70;;;;;;5085373;28;20044;-72
2022/08/27 09:33:33;;;;;;;8.73;1.92;;;21.20;95.10;;;;;;5050596;28;20089;-73
2022/08/27 09:36:03;;;;;;;7.47;1.70;;;21.20;95.40;;;;;;5049979;28;20163;-72
2022/08/27 09:38:33;;;;;;;8.27;1.90;;;21.30;94.90;;;;;;5053290;28;20056;-74
2022/08/27 09:41:04;;;;;;;9.52;1.98;;;21.40;95.10;;;;;;5065548;28;20467;-73
2022/08/27 09:43:32;;;;;;;7.88;1.90;;;21.50;94.10;;;;;;5070714;28;20052;-74
2022/08/27 09:46:03;;;;;;;7.50;1.88;;;21.40;93.70;;;;;;5071088;28;20046;-75
2022/08/27 09:48:36;;;;;;;8.85;1.90;;;21.40;94.00;;;;;;5065629;28;20097;-73
2022/08/27 09:51:18;;;;;;;8.32;1.73;;;21.40;94.00;;;;;;5069253;28;20047;-73
2022/08/27 09:53:51;;;;;;;9.23;1.98;;;21.20;93.30;;;;;;5049042;28;20032;-73
2022/08/27 09:56:38;;;;;;;8.70;1.83;;;21.20;93.70;;;;;;5065759;28;20127;-73
2022/08/27 09:59:10;;;;;;;7.97;1.80;;;21.70;93.70;;;;;;5073606;28;20047;-73
2022/08/27 10:01:48;;;;;;;9.35;2.00;;;21.80;93.50;;;;;;5066705;28;20043;-73
2022/08/27 10:04:16;;;;;;;9.75;2.08;;;21.60;93.40;;;;;;5076596;28;20054;-73
2022/08/27 10:06:48;;;;;;;11.18;2.40;;;21.60;94.00;;;;;;5066043;28;20044;-74
2022/08/27 10:09:16;;;;;;;;;;;21.40;94.30;;;;;;5051928;28;20064;-73
2022/08/27 10:12:04;;;;;;;8.88;2.10;;;21.30;94.40;;;;;;5066651;28;19932;-73
2022/08/27 10:14:36;;;;;;;9.70;2.03;;;21.20;94.70;;;;;;5066039;28;20032;-71
2022/08/27 10:17:43;;;;;;;8.75;1.75;;;21.20;94.50;;;;;;5048213;28;20056;-72
2022/08/27 10:20:17;;;;;;;8.25;1.90;;;21.20;93.20;;;;;;5055340;28;20040;-72
2022/08/27 10:23:15;;;;;;;10.90;1.90;;;21.20;93.80;;;;;;5082106;28;20044;-77
2022/08/27 10:26:02;;;;;;;9.02;2.00;;;21.30;93.60;;;;;;5052736;28;20209;-73
2022/08/27 10:28:48;;;;;;;6.68;1.60;;;21.40;93.50;;;;;;5085476;28;20071;-73
2022/08/27 10:31:38;;;;;;;10.82;2.00;;;21.70;93.20;;;;;;5069073;28;20056;-73
2022/08/27 10:34:19;;;;;;;6.70;1.80;;;22.10;92.50;;;;;;5066792;28;20492;-72
2022/08/27 10:37:16;;;;;;;9.07;1.90;;;22.50;92.40;;;;;;5081920;28;20476;-74
2022/08/27 10:39:51;;;;;;;8.10;1.80;;;22.60;91.30;;;;;;5069972;28;20294;-73
2022/08/27 10:42:25;;;;;;;9.95;2.00;;;22.40;91.70;;;;;;5084362;28;20467;-72
2022/08/27 10:44:54;;;;;;;9.38;1.70;;;22.30;91.60;;;;;;5071599;28;20044;-74
2022/08/27 10:47:48;;;;;;;7.20;1.77;;;22.00;91.60;;;;;;5051357;28;20051;-74
2022/08/27 10:50:19;;;;;;;6.97;1.63;;;21.90;92.10;;;;;;5066818;28;20050;-72
2022/08/27 10:53:00;;;;;;;8.52;1.80;;;21.90;92.90;;;;;;5055584;28;20048;-73
2022/08/27 10:55:41;;;;;;;8.60;1.60;;;21.90;92.70;;;;;;5053719;28;20052;-74
2022/08/27 10:58:28;;;;;;;8.43;1.90;;;21.90;92.40;;;;;;5043188;28;20052;-75
2022/08/27 11:01:12;;;;;;;7.32;1.70;;;22.10;92.30;;;;;;5023364;28;20136;-72
2022/08/27 11:03:53;;;;;;;7.72;1.95;;;22.10;92.30;;;;;;5053635;28;20045;-74
2022/08/27 11:06:39;;;;;;;8.98;1.92;;;22.10;91.00;;;;;;5053278;28;20392;-73
2022/08/27 11:09:39;;;;;;;8.98;1.77;;;22.20;91.50;;;;;;5032920;28;20052;-73
2022/08/27 11:12:09;;;;;;;9.30;1.90;;;22.20;90.10;;;;;;5047146;28;20052;-73
2022/08/27 11:14:44;;;;;;;6.88;1.80;;;22.30;90.70;;;;;;5055169;28;20045;-73
2022/08/27 11:17:37;;;;;;;8.02;1.90;;;22.40;90.20;;;;;;5057519;28;20106;-73
2022/08/27 11:20:11;;;;;;;7.20;1.90;;;22.40;89.90;;;;;;5061003;28;20469;-75
2022/08/27 11:22:44;;;;;;;8.60;1.83;;;22.70;90.40;;;;;;5056248;28;20429;-71
2022/08/27 11:25:25;;;;;;;8.65;1.80;;;22.90;88.50;;;;;;5043093;28;20050;-75
2022/08/27 11:27:53;;;;;;;8.05;1.73;;;23.20;87.10;;;;;;5043099;28;20040;-75
2022/08/27 11:30:30;;;;;;;8.15;1.88;;;23.20;85.40;;;;;;5038023;28;20120;-73
2022/08/27 11:33:18;;;;;;;7.82;1.90;;;23.40;85.30;;;;;;5051514;28;20045;-73
2022/08/27 11:36:15;;;;;;;6.75;1.67;;;23.60;85.40;;;;;;5057054;28;20131;-73
2022/08/27 11:38:48;;;;;;;9.13;1.95;;;23.90;84.20;;;;;;5037013;28;20109;-72
2022/08/27 11:41:51;;;;;;;8.98;1.80;;;24.00;80.40;;;;;;5066681;28;20044;-75
2022/08/27 11:44:21;;;;;;;7.82;1.83;;;23.60;81.50;;;;;;5057628;28;20079;-72
2022/08/27 11:47:08;;;;;;;10.13;1.70;;;23.40;82.60;;;;;;5074605;28;20046;-74
2022/08/27 11:49:53;;;;;;;8.40;1.63;;;23.20;83.00;;;;;;5040888;28;20047;-73
2022/08/27 11:52:40;;;;;;;7.95;1.70;;;23.00;83.20;;;;;;5050342;28;20053;-74
2022/08/27 11:55:18;;;;;;;6.60;1.50;;;22.90;83.10;;;;;;5054907;28;20076;-75
2022/08/27 11:57:46;;;;;;;9.50;1.95;;;22.90;81.70;;;;;;5055379;28;20534;-74
2022/08/27 12:00:14;;;;;;;7.70;1.75;;;23.10;82.10;;;;;;5029111;28;20072;-75
2022/08/27 12:02:40;;;;;;;6.85;1.42;;;23.30;82.50;;;;;;5055050;28;20178;-74
2022/08/27 12:05:22;;;;;;;9.85;1.70;;;23.60;81.00;;;;;;5037186;28;20120;-75
2022/08/27 12:07:50;;;;;;;6.60;1.75;;;23.70;78.50;;;;;;5071921;28;20089;-74
2022/08/27 12:10:30;;;;;;;6.78;1.60;;;23.60;78.70;;;;;;5040065;28;20131;-75
2022/08/27 12:13:08;;;;;;;6.60;1.70;;;23.40;79.20;;;;;;5055943;28;20098;-74
2022/08/27 12:15:48;;;;;;;8.05;1.98;;;23.20;77.60;;;;;;5056834;28;20065;-72
2022/08/27 12:18:29;;;;;;;6.30;1.60;;;23.10;78.50;;;;;;5054416;28;20124;-74
2022/08/27 12:21:05;;;;;;;7.10;1.63;;;22.90;79.60;;;;;;5049754;28;20071;-74
2022/08/27 12:23:48;;;;;;;7.53;1.88;;;22.90;80.90;;;;;;5049572;28;20438;-73
2022/08/27 12:26:41;;;;;;;7.68;1.70;;;23.20;81.20;;;;;;5068202;28;20044;-75
2022/08/27 12:29:24;;;;;;;7.22;1.70;;;23.50;80.80;;;;;;5047186;28;20051;-72
2022/08/27 12:31:55;;;;;;;9.38;1.80;;;23.70;76.50;;;;;;5039807;28;20048;-74
2022/08/27 12:34:24;;;;;;;8.57;1.77;;;23.70;75.50;;;;;;5044771;28;20037;-73
2022/08/27 12:36:52;;;;;;;8.30;1.70;;;23.80;74.90;;;;;;5035676;28;20180;-76
2022/08/27 12:39:27;;;;;;;9.18;1.70;;;23.90;75.90;;;;;;5046980;28;20048;-74
2022/08/27 12:41:53;;;;;;;6.40;1.60;;;24.10;76.30;;;;;;5052064;28;20044;-77
2022/08/27 12:44:29;;;;;;;7.80;1.70;;;24.30;73.40;;;;;;5063799;28;20045;-73
2022/08/27 12:47:04;;;;;;;7.70;1.73;;;24.50;72.70;;;;;;5053874;28;20433;-75
2022/08/27 12:49:43;;;;;;;6.32;1.50;;;24.60;71.40;;;;;;5063549;28;20123;-74
2022/08/27 12:52:34;;;;;;;7.03;1.60;;;24.30;70.40;;;;;;5050344;28;20060;-75
2022/08/27 12:55:18;;;;;;;6.88;1.50;;;24.00;71.20;;;;;;5035964;28;20076;-74
2022/08/27 12:58:20;;;;;;;6.55;1.67;;;23.90;71.30;;;;;;5040680;28;20043;-74
2022/08/27 13:01:10;;;;;;;6.00;1.60;;;24.10;70.90;;;;;;5053827;28;20463;-74
2022/08/27 13:03:43;;;;;;;8.30;1.70;;;24.30;71.40;;;;;;5045857;28;20040;-74
2022/08/27 13:06:22;;;;;;;7.72;1.73;;;24.30;71.50;;;;;;5054204;28;20119;-74
2022/08/27 13:08:54;;;;;;;8.68;1.70;;;24.00;70.60;;;;;;5053689;28;20127;-73
2022/08/27 13:11:26;;;;;;;8.30;1.83;;;23.60;71.50;;;;;;5049579;28;20049;-73
2022/08/27 13:14:02;;;;;;;6.25;1.60;;;23.40;72.30;;;;;;5031288;28;20049;-73
2022/08/27 13:16:28;;;;;;;6.75;1.38;;;23.20;73.00;;;;;;5053297;28;20049;-74